sensor_id;sensor_type;location;lat;lon;timestamp;pressure;altitude;pressure_sealevel;temperature;humidity
68793;BME280;55778;54.346;10.210;2024-01-06T00:00:19;100388.56;;;0.17;100.00
68793;BME280;55778;54.346;10.210;2024-01-06T00:02:48;100390.28;;;0.18;100.00
68793;BME280;55778;54.346;10.210;2024-01-06T00:05:14;100384.53;;;0.10;100.00
68793;BME280;55778;54.346;10.210;2024-01-06T00:07:39;100384.34;;;0.13;100.00
68793;BME280;55778;54.346;10.210;2024-01-06T00:10:06;100395.28;;;0.24;100.00
68793;BME280;55778;54.346;10.210;2024-01-06T00:12:31;100393.59;;;0.08;100.00
68793;BME280;55778;54.346;10.210;2024-01-06T00:14:57;100398.41;;;0.17;100.00
68793;BME280;55778;54.346;10.210;2024-01-06T00:17:22;100403.19;;;0.12;100.00
68793;BME280;55778;54.346;10.210;2024-01-06T00:19:47;100406.78;;;0.26;100.00
68793;BME280;55778;54.346;10.210;2024-01-06T00:22:20;100406.97;;;0.23;100.00
68793;BME280;55778;54.346;10.210;2024-01-06T00:24:45;100419.28;;;0.41;100.00
68793;BME280;55778;54.346;10.210;2024-01-06T00:27:11;100425.97;;;0.34;100.00
68793;BME280;55778;54.346;10.210;2024-01-06T00:29:36;100419.84;;;0.17;100.00
68793;BME280;55778;54.346;10.210;2024-01-06T00:32:02;100419.41;;;0.24;100.00
68793;BME280;55778;54.346;10.210;2024-01-06T00:34:27;100413.94;;;0.26;100.00
68793;BME280;55778;54.346;10.210;2024-01-06T00:36:56;100412.94;;;0.28;100.00
68793;BME280;55778;54.346;10.210;2024-01-06T00:39:22;100414.38;;;0.34;100.00
68793;BME280;55778;54.346;10.210;2024-01-06T00:41:48;100412.75;;;0.31;100.00
68793;BME280;55778;54.346;10.210;2024-01-06T00:44:13;100419.03;;;0.30;100.00
68793;BME280;55778;54.346;10.210;2024-01-06T00:46:39;100421.72;;;0.30;100.00
68793;BME280;55778;54.346;10.210;2024-01-06T00:49:05;100419.50;;;0.23;100.00
68793;BME280;55778;54.346;10.210;2024-01-06T00:51:30;100423.03;;;0.23;100.00
68793;BME280;55778;54.346;10.210;2024-01-06T00:54:02;100422.69;;;0.29;100.00
68793;BME280;55778;54.346;10.210;2024-01-06T00:56:31;100430.91;;;0.26;100.00
68793;BME280;55778;54.346;10.210;2024-01-06T00:58:57;100424.13;;;0.35;100.00
68793;BME280;55778;54.346;10.210;2024-01-06T01:01:23;100418.91;;;0.18;100.00
68793;BME280;55778;54.346;10.210;2024-01-06T01:03:49;100424.94;;;0.21;100.00
68793;BME280;55778;54.346;10.210;2024-01-06T01:06:15;100436.91;;;0.45;100.00
68793;BME280;55778;54.346;10.210;2024-01-06T01:08:42;100442.72;;;0.38;100.00
68793;BME280;55778;54.346;10.210;2024-01-06T01:11:08;100432.34;;;0.32;100.00
68793;BME280;55778;54.346;10.210;2024-01-06T01:13:33;100425.63;;;0.25;100.00
68793;BME280;55778;54.346;10.210;2024-01-06T01:15:59;100434.22;;;0.45;100.00
68793;BME280;55778;54.346;10.210;2024-01-06T01:18:25;100429.47;;;0.50;100.00
68793;BME280;55778;54.346;10.210;2024-01-06T01:20:50;100437.34;;;0.38;100.00
68793;BME280;55778;54.346;10.210;2024-01-06T01:23:16;100447.59;;;0.31;100.00
68793;BME280;55778;54.346;10.210;2024-01-06T01:25:41;100445.53;;;0.21;100.00
68793;BME280;55778;54.346;10.210;2024-01-06T01:28:07;100450.72;;;0.24;100.00
68793;BME280;55778;54.346;10.210;2024-01-06T01:30:32;100447.81;;;0.42;100.00
68793;BME280;55778;54.346;10.210;2024-01-06T01:32:58;100446.09;;;0.41;100.00
68793;BME280;55778;54.346;10.210;2024-01-06T01:35:30;100447.53;;;0.47;100.00
68793;BME280;55778;54.346;10.210;2024-01-06T01:37:55;100459.97;;;0.48;100.00
68793;BME280;55778;54.346;10.210;2024-01-06T01:40:21;100455.72;;;0.30;100.00
68793;BME280;55778;54.346;10.210;2024-01-06T01:42:46;100465.47;;;0.31;100.00
68793;BME280;55778;54.346;10.210;2024-01-06T01:45:17;100461.91;;;0.30;100.00
68793;BME280;55778;54.346;10.210;2024-01-06T01:47:43;100453.25;;;0.41;100.00
68793;BME280;55778;54.346;10.210;2024-01-06T01:50:11;100472.53;;;0.47;100.00
68793;BME280;55778;54.346;10.210;2024-01-06T01:52:37;100471.56;;;0.48;100.00
68793;BME280;55778;54.346;10.210;2024-01-06T01:55:04;100469.69;;;0.35;100.00
68793;BME280;55778;54.346;10.210;2024-01-06T01:57:30;100465.13;;;0.37;100.00
68793;BME280;55778;54.346;10.210;2024-01-06T01:59:56;100478.50;;;0.37;100.00
68793;BME280;55778;54.346;10.210;2024-01-06T02:02:22;100469.50;;;0.38;100.00
68793;BME280;55778;54.346;10.210;2024-01-06T02:04:48;100463.50;;;0.34;100.00
68793;BME280;55778;54.346;10.210;2024-01-06T02:07:13;100464.59;;;0.30;100.00
68793;BME280;55778;54.346;10.210;2024-01-06T02:09:39;100470.03;;;0.29;100.00
68793;BME280;55778;54.346;10.210;2024-01-06T02:12:04;100471.19;;;0.25;100.00
68793;BME280;55778;54.346;10.210;2024-01-06T02:14:30;100480.94;;;0.26;100.00
68793;BME280;55778;54.346;10.210;2024-01-06T02:16:57;100477.41;;;0.25;100.00
68793;BME280;55778;54.346;10.210;2024-01-06T02:19:24;100487.59;;;0.19;100.00
68793;BME280;55778;54.346;10.210;2024-01-06T02:21:52;100490.91;;;0.24;100.00
68793;BME280;55778;54.346;10.210;2024-01-06T02:24:18;100501.34;;;0.28;100.00
68793;BME280;55778;54.346;10.210;2024-01-06T02:26:43;100492.00;;;0.35;100.00
68793;BME280;55778;54.346;10.210;2024-01-06T02:29:08;100492.44;;;0.12;100.00
68793;BME280;55778;54.346;10.210;2024-01-06T02:31:34;100480.72;;;0.15;100.00
68793;BME280;55778;54.346;10.210;2024-01-06T02:33:59;100482.69;;;0.27;100.00
68793;BME280;55778;54.346;10.210;2024-01-06T02:36:25;100498.84;;;0.10;100.00
68793;BME280;55778;54.346;10.210;2024-01-06T02:38:50;100502.97;;;0.15;100.00
68793;BME280;55778;54.346;10.210;2024-01-06T02:41:15;100505.66;;;0.15;100.00
68793;BME280;55778;54.346;10.210;2024-01-06T02:43:41;100516.72;;;0.25;100.00
68793;BME280;55778;54.346;10.210;2024-01-06T02:46:07;100512.75;;;0.32;100.00
68793;BME280;55778;54.346;10.210;2024-01-06T02:48:32;100512.34;;;0.24;100.00
68793;BME280;55778;54.346;10.210;2024-01-06T02:50:58;100513.69;;;0.31;100.00
68793;BME280;55778;54.346;10.210;2024-01-06T02:53:23;100514.94;;;0.25;100.00
68793;BME280;55778;54.346;10.210;2024-01-06T02:55:48;100513.44;;;0.35;100.00
68793;BME280;55778;54.346;10.210;2024-01-06T02:58:14;100517.69;;;0.24;100.00
68793;BME280;55778;54.346;10.210;2024-01-06T03:00:39;100524.66;;;0.42;100.00
68793;BME280;55778;54.346;10.210;2024-01-06T03:03:04;100518.94;;;0.48;100.00
68793;BME280;55778;54.346;10.210;2024-01-06T03:05:30;100531.66;;;0.29;100.00
68793;BME280;55778;54.346;10.210;2024-01-06T03:07:55;100531.00;;;0.25;100.00
68793;BME280;55778;54.346;10.210;2024-01-06T03:10:21;100521.22;;;0.24;100.00
68793;BME280;55778;54.346;10.210;2024-01-06T03:12:46;100527.97;;;0.16;100.00
68793;BME280;55778;54.346;10.210;2024-01-06T03:15:11;100534.53;;;0.26;100.00
68793;BME280;55778;54.346;10.210;2024-01-06T03:17:37;100528.59;;;0.21;100.00
68793;BME280;55778;54.346;10.210;2024-01-06T03:20:03;100530.81;;;0.28;100.00
68793;BME280;55778;54.346;10.210;2024-01-06T03:22:29;100536.88;;;0.16;100.00
68793;BME280;55778;54.346;10.210;2024-01-06T03:24:54;100525.72;;;0.24;100.00
68793;BME280;55778;54.346;10.210;2024-01-06T03:27:20;100518.31;;;0.13;100.00
68793;BME280;55778;54.346;10.210;2024-01-06T03:29:45;100529.84;;;0.14;100.00
68793;BME280;55778;54.346;10.210;2024-01-06T03:32:10;100534.03;;;0.19;100.00
68793;BME280;55778;54.346;10.210;2024-01-06T03:34:36;100528.31;;;0.10;100.00
68793;BME280;55778;54.346;10.210;2024-01-06T03:37:01;100534.28;;;0.15;100.00
68793;BME280;55778;54.346;10.210;2024-01-06T03:39:27;100529.53;;;0.04;100.00
68793;BME280;55778;54.346;10.210;2024-01-06T03:41:53;100531.94;;;0.09;100.00
68793;BME280;55778;54.346;10.210;2024-01-06T03:44:18;100542.41;;;0.13;100.00
68793;BME280;55778;54.346;10.210;2024-01-06T03:46:43;100540.41;;;0.17;100.00
68793;BME280;55778;54.346;10.210;2024-01-06T03:49:09;100554.66;;;0.17;100.00
68793;BME280;55778;54.346;10.210;2024-01-06T03:51:34;100551.28;;;0.14;100.00
68793;BME280;55778;54.346;10.210;2024-01-06T03:54:00;100555.47;;;0.19;100.00
68793;BME280;55778;54.346;10.210;2024-01-06T03:56:25;100553.44;;;0.23;100.00
68793;BME280;55778;54.346;10.210;2024-01-06T03:58:50;100557.09;;;0.22;100.00
68793;BME280;55778;54.346;10.210;2024-01-06T04:01:16;100560.66;;;0.22;100.00
68793;BME280;55778;54.346;10.210;2024-01-06T04:03:41;100558.81;;;0.23;100.00
68793;BME280;55778;54.346;10.210;2024-01-06T04:06:06;100560.72;;;0.21;100.00
68793;BME280;55778;54.346;10.210;2024-01-06T04:08:32;100558.72;;;0.24;100.00
68793;BME280;55778;54.346;10.210;2024-01-06T04:10:57;100566.25;;;0.18;100.00
68793;BME280;55778;54.346;10.210;2024-01-06T04:13:23;100561.00;;;0.16;100.00
68793;BME280;55778;54.346;10.210;2024-01-06T04:15:50;100569.44;;;0.24;100.00
68793;BME280;55778;54.346;10.210;2024-01-06T04:18:16;100573.59;;;0.14;100.00
68793;BME280;55778;54.346;10.210;2024-01-06T04:20:41;100576.56;;;0.25;100.00
68793;BME280;55778;54.346;10.210;2024-01-06T04:23:06;100572.22;;;0.23;100.00
68793;BME280;55778;54.346;10.210;2024-01-06T04:25:32;100571.63;;;0.18;100.00
68793;BME280;55778;54.346;10.210;2024-01-06T04:27:57;100586.66;;;0.20;100.00
68793;BME280;55778;54.346;10.210;2024-01-06T04:30:22;100582.25;;;0.19;100.00
68793;BME280;55778;54.346;10.210;2024-01-06T04:32:49;100587.78;;;0.16;100.00
68793;BME280;55778;54.346;10.210;2024-01-06T04:35:15;100599.59;;;0.12;100.00
68793;BME280;55778;54.346;10.210;2024-01-06T04:37:40;100598.88;;;-0.07;100.00
68793;BME280;55778;54.346;10.210;2024-01-06T04:40:06;100608.34;;;0.16;100.00
68793;BME280;55778;54.346;10.210;2024-01-06T04:42:33;100602.28;;;0.12;100.00
68793;BME280;55778;54.346;10.210;2024-01-06T04:44:58;100600.72;;;0.08;100.00
68793;BME280;55778;54.346;10.210;2024-01-06T04:47:24;100606.88;;;0.10;100.00
68793;BME280;55778;54.346;10.210;2024-01-06T04:49:50;100604.34;;;0.07;100.00
68793;BME280;55778;54.346;10.210;2024-01-06T04:52:15;100615.66;;;0.12;100.00
68793;BME280;55778;54.346;10.210;2024-01-06T04:54:40;100612.06;;;0.13;100.00
68793;BME280;55778;54.346;10.210;2024-01-06T04:57:06;100611.09;;;0.14;100.00
68793;BME280;55778;54.346;10.210;2024-01-06T04:59:31;100624.25;;;0.19;100.00
68793;BME280;55778;54.346;10.210;2024-01-06T05:02:00;100614.56;;;0.16;100.00
68793;BME280;55778;54.346;10.210;2024-01-06T05:04:25;100618.50;;;0.09;100.00
68793;BME280;55778;54.346;10.210;2024-01-06T05:06:51;100619.94;;;0.16;100.00
68793;BME280;55778;54.346;10.210;2024-01-06T05:09:17;100623.69;;;0.12;100.00
68793;BME280;55778;54.346;10.210;2024-01-06T05:11:45;100644.38;;;0.10;100.00
68793;BME280;55778;54.346;10.210;2024-01-06T05:14:11;100642.91;;;0.20;100.00
68793;BME280;55778;54.346;10.210;2024-01-06T05:16:37;100639.94;;;0.09;100.00
68793;BME280;55778;54.346;10.210;2024-01-06T05:19:02;100647.53;;;0.01;100.00
68793;BME280;55778;54.346;10.210;2024-01-06T05:21:29;100641.63;;;-0.06;100.00
68793;BME280;55778;54.346;10.210;2024-01-06T05:23:54;100642.94;;;0.03;100.00
68793;BME280;55778;54.346;10.210;2024-01-06T05:26:19;100654.09;;;-0.05;100.00
68793;BME280;55778;54.346;10.210;2024-01-06T05:28:45;100651.66;;;-0.09;100.00
68793;BME280;55778;54.346;10.210;2024-01-06T05:31:10;100668.19;;;-0.01;100.00
68793;BME280;55778;54.346;10.210;2024-01-06T05:33:35;100656.53;;;0.00;100.00
68793;BME280;55778;54.346;10.210;2024-01-06T05:36:01;100665.97;;;0.07;100.00
68793;BME280;55778;54.346;10.210;2024-01-06T05:38:27;100670.38;;;0.08;100.00
68793;BME280;55778;54.346;10.210;2024-01-06T05:40:52;100671.50;;;0.20;100.00
68793;BME280;55778;54.346;10.210;2024-01-06T05:43:18;100675.09;;;0.03;100.00
68793;BME280;55778;54.346;10.210;2024-01-06T05:45:43;100686.28;;;0.11;100.00
68793;BME280;55778;54.346;10.210;2024-01-06T05:48:09;100692.03;;;0.03;100.00
68793;BME280;55778;54.346;10.210;2024-01-06T05:50:35;100689.59;;;-0.01;100.00
68793;BME280;55778;54.346;10.210;2024-01-06T05:53:00;100692.59;;;0.10;100.00
68793;BME280;55778;54.346;10.210;2024-01-06T05:55:26;100701.38;;;0.12;100.00
68793;BME280;55778;54.346;10.210;2024-01-06T05:57:51;100709.59;;;0.09;100.00
68793;BME280;55778;54.346;10.210;2024-01-06T06:00:17;100715.09;;;0.06;100.00
68793;BME280;55778;54.346;10.210;2024-01-06T06:02:42;100715.41;;;0.17;100.00
68793;BME280;55778;54.346;10.210;2024-01-06T06:05:08;100717.47;;;0.12;100.00
68793;BME280;55778;54.346;10.210;2024-01-06T06:07:33;100718.41;;;0.11;100.00
68793;BME280;55778;54.346;10.210;2024-01-06T06:10:05;100731.00;;;0.09;100.00
68793;BME280;55778;54.346;10.210;2024-01-06T06:12:31;100740.16;;;0.22;100.00
68793;BME280;55778;54.346;10.210;2024-01-06T06:14:57;100732.38;;;0.18;100.00
68793;BME280;55778;54.346;10.210;2024-01-06T06:17:22;100743.00;;;0.19;100.00
68793;BME280;55778;54.346;10.210;2024-01-06T06:19:48;100736.22;;;0.12;100.00
68793;BME280;55778;54.346;10.210;2024-01-06T06:22:13;100752.03;;;0.17;100.00
68793;BME280;55778;54.346;10.210;2024-01-06T06:24:38;100746.09;;;0.12;100.00
68793;BME280;55778;54.346;10.210;2024-01-06T06:27:04;100748.03;;;0.08;100.00
68793;BME280;55778;54.346;10.210;2024-01-06T06:29:29;100753.09;;;0.14;100.00
68793;BME280;55778;54.346;10.210;2024-01-06T06:31:55;100755.13;;;0.09;100.00
68793;BME280;55778;54.346;10.210;2024-01-06T06:34:20;100752.75;;;0.03;100.00
68793;BME280;55778;54.346;10.210;2024-01-06T06:36:45;100764.75;;;0.13;100.00
68793;BME280;55778;54.346;10.210;2024-01-06T06:39:11;100768.59;;;0.25;100.00
68793;BME280;55778;54.346;10.210;2024-01-06T06:41:36;100780.03;;;0.11;100.00
68793;BME280;55778;54.346;10.210;2024-01-06T06:44:02;100787.19;;;0.11;100.00
68793;BME280;55778;54.346;10.210;2024-01-06T06:46:27;100781.34;;;0.20;100.00
68793;BME280;55778;54.346;10.210;2024-01-06T06:48:52;100780.66;;;0.16;100.00
68793;BME280;55778;54.346;10.210;2024-01-06T06:51:18;100781.81;;;0.28;100.00
68793;BME280;55778;54.346;10.210;2024-01-06T06:53:43;100789.31;;;0.21;100.00
68793;BME280;55778;54.346;10.210;2024-01-06T06:56:08;100803.91;;;0.33;100.00
68793;BME280;55778;54.346;10.210;2024-01-06T06:58:34;100806.91;;;0.27;100.00
68793;BME280;55778;54.346;10.210;2024-01-06T07:00:59;100806.44;;;0.19;100.00
68793;BME280;55778;54.346;10.210;2024-01-06T07:03:25;100808.72;;;0.26;100.00
68793;BME280;55778;54.346;10.210;2024-01-06T07:05:52;100809.44;;;0.30;100.00
68793;BME280;55778;54.346;10.210;2024-01-06T07:08:17;100818.53;;;0.26;100.00
68793;BME280;55778;54.346;10.210;2024-01-06T07:10:43;100813.75;;;0.32;100.00
68793;BME280;55778;54.346;10.210;2024-01-06T07:13:08;100830.78;;;0.31;100.00
68793;BME280;55778;54.346;10.210;2024-01-06T07:15:33;100824.69;;;0.28;100.00
68793;BME280;55778;54.346;10.210;2024-01-06T07:17:59;100829.03;;;0.30;100.00
68793;BME280;55778;54.346;10.210;2024-01-06T07:20:24;100827.06;;;0.34;100.00
68793;BME280;55778;54.346;10.210;2024-01-06T07:22:50;100834.22;;;0.33;100.00
68793;BME280;55778;54.346;10.210;2024-01-06T07:25:15;100828.94;;;0.32;100.00
68793;BME280;55778;54.346;10.210;2024-01-06T07:27:40;100835.25;;;0.31;100.00
68793;BME280;55778;54.346;10.210;2024-01-06T07:30:06;100837.53;;;0.21;100.00
68793;BME280;55778;54.346;10.210;2024-01-06T07:32:35;100832.66;;;0.29;100.00
68793;BME280;55778;54.346;10.210;2024-01-06T07:35:00;100845.56;;;0.21;100.00
68793;BME280;55778;54.346;10.210;2024-01-06T07:37:25;100849.84;;;0.25;100.00
68793;BME280;55778;54.346;10.210;2024-01-06T07:39:51;100850.63;;;0.27;100.00
68793;BME280;55778;54.346;10.210;2024-01-06T07:42:17;100861.34;;;0.27;100.00
68793;BME280;55778;54.346;10.210;2024-01-06T07:44:43;100862.63;;;0.20;100.00
68793;BME280;55778;54.346;10.210;2024-01-06T07:47:09;100861.41;;;0.26;100.00
68793;BME280;55778;54.346;10.210;2024-01-06T07:49:37;100860.81;;;0.21;100.00
68793;BME280;55778;54.346;10.210;2024-01-06T07:52:02;100857.91;;;0.25;100.00
68793;BME280;55778;54.346;10.210;2024-01-06T07:54:28;100859.69;;;0.25;100.00
68793;BME280;55778;54.346;10.210;2024-01-06T07:56:53;100863.66;;;0.18;100.00
68793;BME280;55778;54.346;10.210;2024-01-06T07:59:19;100874.66;;;0.29;100.00
68793;BME280;55778;54.346;10.210;2024-01-06T08:01:44;100875.47;;;0.31;100.00
68793;BME280;55778;54.346;10.210;2024-01-06T08:04:10;100871.75;;;0.33;100.00
68793;BME280;55778;54.346;10.210;2024-01-06T08:06:35;100881.47;;;0.36;100.00
68793;BME280;55778;54.346;10.210;2024-01-06T08:09:01;100884.84;;;0.39;100.00
68793;BME280;55778;54.346;10.210;2024-01-06T08:11:26;100884.75;;;0.41;100.00
68793;BME280;55778;54.346;10.210;2024-01-06T08:13:51;100892.72;;;0.42;100.00
68793;BME280;55778;54.346;10.210;2024-01-06T08:16:18;100899.03;;;0.41;100.00
68793;BME280;55778;54.346;10.210;2024-01-06T08:18:43;100896.19;;;0.44;100.00
68793;BME280;55778;54.346;10.210;2024-01-06T08:21:10;100899.09;;;0.40;100.00
68793;BME280;55778;54.346;10.210;2024-01-06T08:23:35;100907.75;;;0.45;100.00
68793;BME280;55778;54.346;10.210;2024-01-06T08:26:01;100912.28;;;0.44;100.00
68793;BME280;55778;54.346;10.210;2024-01-06T08:28:27;100904.84;;;0.49;100.00
68793;BME280;55778;54.346;10.210;2024-01-06T08:30:52;100918.56;;;0.60;100.00
68793;BME280;55778;54.346;10.210;2024-01-06T08:33:17;100919.69;;;0.56;100.00
68793;BME280;55778;54.346;10.210;2024-01-06T08:35:43;100921.19;;;0.62;100.00
68793;BME280;55778;54.346;10.210;2024-01-06T08:38:09;100927.41;;;0.62;100.00
68793;BME280;55778;54.346;10.210;2024-01-06T08:40:35;100942.94;;;0.56;100.00
68793;BME280;55778;54.346;10.210;2024-01-06T08:43:01;100943.28;;;0.67;100.00
68793;BME280;55778;54.346;10.210;2024-01-06T08:45:26;100944.53;;;0.77;100.00
68793;BME280;55778;54.346;10.210;2024-01-06T08:47:52;100943.63;;;0.76;100.00
68793;BME280;55778;54.346;10.210;2024-01-06T08:50:17;100958.53;;;0.82;100.00
68793;BME280;55778;54.346;10.210;2024-01-06T08:52:42;100952.56;;;0.77;100.00
68793;BME280;55778;54.346;10.210;2024-01-06T08:55:08;100955.16;;;0.78;100.00
68793;BME280;55778;54.346;10.210;2024-01-06T08:57:33;100969.03;;;0.86;100.00
68793;BME280;55778;54.346;10.210;2024-01-06T08:59:59;100967.63;;;0.96;100.00
68793;BME280;55778;54.346;10.210;2024-01-06T09:02:24;100966.19;;;0.89;100.00
68793;BME280;55778;54.346;10.210;2024-01-06T09:04:49;100969.09;;;0.85;100.00
68793;BME280;55778;54.346;10.210;2024-01-06T09:07:15;100971.19;;;0.80;100.00
68793;BME280;55778;54.346;10.210;2024-01-06T09:09:42;100985.75;;;0.91;100.00
68793;BME280;55778;54.346;10.210;2024-01-06T09:12:08;100983.47;;;0.84;100.00
68793;BME280;55778;54.346;10.210;2024-01-06T09:14:33;100989.16;;;0.95;100.00
68793;BME280;55778;54.346;10.210;2024-01-06T09:16:58;100985.44;;;0.80;100.00
68793;BME280;55778;54.346;10.210;2024-01-06T09:19:24;100985.91;;;0.88;100.00
68793;BME280;55778;54.346;10.210;2024-01-06T09:21:49;101000.91;;;0.92;100.00
68793;BME280;55778;54.346;10.210;2024-01-06T09:24:15;101011.63;;;0.92;100.00
68793;BME280;55778;54.346;10.210;2024-01-06T09:26:40;101008.09;;;0.92;100.00
68793;BME280;55778;54.346;10.210;2024-01-06T09:29:05;101018.97;;;0.72;100.00
68793;BME280;55778;54.346;10.210;2024-01-06T09:31:31;101025.34;;;0.69;100.00
68793;BME280;55778;54.346;10.210;2024-01-06T09:34:00;101033.09;;;0.75;100.00
68793;BME280;55778;54.346;10.210;2024-01-06T09:36:27;101043.09;;;0.72;100.00
68793;BME280;55778;54.346;10.210;2024-01-06T09:38:52;101039.66;;;0.87;100.00
68793;BME280;55778;54.346;10.210;2024-01-06T09:41:18;101046.19;;;0.81;100.00
68793;BME280;55778;54.346;10.210;2024-01-06T09:43:43;101044.44;;;0.80;100.00
68793;BME280;55778;54.346;10.210;2024-01-06T09:46:24;101047.13;;;0.80;100.00
68793;BME280;55778;54.346;10.210;2024-01-06T09:48:53;101063.06;;;0.66;100.00
68793;BME280;55778;54.346;10.210;2024-01-06T09:51:20;101057.38;;;0.72;100.00
68793;BME280;55778;54.346;10.210;2024-01-06T09:54:04;101058.34;;;0.71;100.00
68793;BME280;55778;54.346;10.210;2024-01-06T09:56:34;101061.25;;;0.84;100.00
68793;BME280;55778;54.346;10.210;2024-01-06T09:58:59;101066.63;;;0.67;100.00
68793;BME280;55778;54.346;10.210;2024-01-06T10:01:25;101063.63;;;0.73;100.00
68793;BME280;55778;54.346;10.210;2024-01-06T10:03:51;101069.53;;;0.62;100.00
68793;BME280;55778;54.346;10.210;2024-01-06T10:06:17;101065.72;;;0.66;100.00
68793;BME280;55778;54.346;10.210;2024-01-06T10:08:52;101073.72;;;0.68;100.00
68793;BME280;55778;54.346;10.210;2024-01-06T10:11:24;101072.28;;;0.61;100.00
68793;BME280;55778;54.346;10.210;2024-01-06T10:13:50;101065.72;;;0.66;100.00
68793;BME280;55778;54.346;10.210;2024-01-06T10:16:16;101073.84;;;0.65;100.00
68793;BME280;55778;54.346;10.210;2024-01-06T10:18:42;101070.88;;;0.71;100.00
68793;BME280;55778;54.346;10.210;2024-01-06T10:21:09;101080.25;;;0.79;100.00
68793;BME280;55778;54.346;10.210;2024-01-06T10:23:34;101075.13;;;0.75;100.00
68793;BME280;55778;54.346;10.210;2024-01-06T10:26:01;101073.63;;;0.86;100.00
68793;BME280;55778;54.346;10.210;2024-01-06T10:28:28;101078.38;;;0.81;100.00
68793;BME280;55778;54.346;10.210;2024-01-06T10:30:55;101081.44;;;0.74;100.00
68793;BME280;55778;54.346;10.210;2024-01-06T10:33:22;101074.44;;;0.71;100.00
68793;BME280;55778;54.346;10.210;2024-01-06T10:35:48;101084.44;;;0.68;100.00
68793;BME280;55778;54.346;10.210;2024-01-06T10:38:14;101090.25;;;0.76;100.00
68793;BME280;55778;54.346;10.210;2024-01-06T10:41:04;101085.69;;;0.61;100.00
68793;BME280;55778;54.346;10.210;2024-01-06T10:43:33;101081.91;;;0.65;100.00
68793;BME280;55778;54.346;10.210;2024-01-06T10:46:04;101096.84;;;0.52;100.00
68793;BME280;55778;54.346;10.210;2024-01-06T10:48:33;101099.09;;;0.61;100.00
68793;BME280;55778;54.346;10.210;2024-01-06T10:50:59;101103.66;;;0.59;100.00
68793;BME280;55778;54.346;10.210;2024-01-06T10:53:26;101109.44;;;0.68;100.00
68793;BME280;55778;54.346;10.210;2024-01-06T10:55:52;101112.22;;;0.48;100.00
68793;BME280;55778;54.346;10.210;2024-01-06T10:58:18;101103.06;;;0.52;100.00
68793;BME280;55778;54.346;10.210;2024-01-06T11:00:44;101108.22;;;0.57;100.00
68793;BME280;55778;54.346;10.210;2024-01-06T11:03:09;101113.50;;;0.58;100.00
68793;BME280;55778;54.346;10.210;2024-01-06T11:05:36;101112.56;;;0.59;100.00
68793;BME280;55778;54.346;10.210;2024-01-06T11:08:05;101109.09;;;0.57;100.00
68793;BME280;55778;54.346;10.210;2024-01-06T11:10:32;101114.97;;;0.65;100.00
68793;BME280;55778;54.346;10.210;2024-01-06T11:13:12;101110.53;;;0.64;100.00
68793;BME280;55778;54.346;10.210;2024-01-06T11:15:44;101118.72;;;0.61;100.00
68793;BME280;55778;54.346;10.210;2024-01-06T11:23:37;101119.44;;;0.65;100.00
68793;BME280;55778;54.346;10.210;2024-01-06T11:26:03;101114.47;;;0.74;100.00
68793;BME280;55778;54.346;10.210;2024-01-06T11:28:28;101117.72;;;0.64;100.00
68793;BME280;55778;54.346;10.210;2024-01-06T11:31:09;101119.28;;;0.68;100.00
68793;BME280;55778;54.346;10.210;2024-01-06T11:33:41;101117.63;;;0.65;100.00
68793;BME280;55778;54.346;10.210;2024-01-06T11:36:08;101124.50;;;0.71;100.00
68793;BME280;55778;54.346;10.210;2024-01-06T11:38:38;101122.94;;;0.67;100.00
68793;BME280;55778;54.346;10.210;2024-01-06T11:41:06;101116.97;;;0.60;100.00
68793;BME280;55778;54.346;10.210;2024-01-06T11:43:34;101119.22;;;0.69;100.00
68793;BME280;55778;54.346;10.210;2024-01-06T11:46:00;101130.56;;;0.74;100.00
68793;BME280;55778;54.346;10.210;2024-01-06T11:48:29;101123.91;;;0.83;100.00
68793;BME280;55778;54.346;10.210;2024-01-06T11:50:55;101124.13;;;0.78;100.00
68793;BME280;55778;54.346;10.210;2024-01-06T11:53:21;101134.19;;;0.73;100.00
68793;BME280;55778;54.346;10.210;2024-01-06T11:55:48;101124.28;;;0.75;100.00
68793;BME280;55778;54.346;10.210;2024-01-06T11:58:16;101125.38;;;0.71;100.00
68793;BME280;55778;54.346;10.210;2024-01-06T12:00:42;101134.41;;;0.87;100.00
68793;BME280;55778;54.346;10.210;2024-01-06T12:03:07;101130.28;;;0.80;100.00
68793;BME280;55778;54.346;10.210;2024-01-06T12:05:33;101136.72;;;0.76;100.00
68793;BME280;55778;54.346;10.210;2024-01-06T12:07:59;101143.00;;;0.58;100.00
68793;BME280;55778;54.346;10.210;2024-01-06T12:10:27;101149.91;;;0.64;100.00
68793;BME280;55778;54.346;10.210;2024-01-06T12:13:02;101140.38;;;0.75;100.00
68793;BME280;55778;54.346;10.210;2024-01-06T12:15:29;101145.09;;;0.70;100.00
68793;BME280;55778;54.346;10.210;2024-01-06T12:17:55;101138.38;;;0.79;100.00
68793;BME280;55778;54.346;10.210;2024-01-06T12:20:21;101156.41;;;0.77;100.00
68793;BME280;55778;54.346;10.210;2024-01-06T12:22:47;101150.00;;;0.79;100.00
68793;BME280;55778;54.346;10.210;2024-01-06T12:25:14;101140.31;;;0.77;100.00
68793;BME280;55778;54.346;10.210;2024-01-06T12:27:44;101144.94;;;0.73;100.00
68793;BME280;55778;54.346;10.210;2024-01-06T12:30:17;101147.38;;;0.78;100.00
68793;BME280;55778;54.346;10.210;2024-01-06T12:32:45;101141.00;;;0.80;100.00
68793;BME280;55778;54.346;10.210;2024-01-06T12:35:11;101148.81;;;0.85;100.00
68793;BME280;55778;54.346;10.210;2024-01-06T12:37:37;101146.88;;;0.88;100.00
68793;BME280;55778;54.346;10.210;2024-01-06T12:40:03;101142.84;;;0.80;100.00